sensor_id;sensor_type;location;lat;lon;timestamp;temperature;humidity
9509;DHT22;4792;50.088;8.122;2022-07-06T00:01:18;16.00;99.90
9509;DHT22;4792;50.088;8.122;2022-07-06T00:03:46;16.10;99.90
9509;DHT22;4792;50.088;8.122;2022-07-06T00:06:21;16.00;99.90
9509;DHT22;4792;50.088;8.122;2022-07-06T00:08:50;15.90;99.90
9509;DHT22;4792;50.088;8.122;2022-07-06T00:11:19;16.00;99.90
9509;DHT22;4792;50.088;8.122;2022-07-06T00:13:47;16.00;99.90
9509;DHT22;4792;50.088;8.122;2022-07-06T00:16:15;16.00;99.90
9509;DHT22;4792;50.088;8.122;2022-07-06T00:18:44;15.90;99.90
9509;DHT22;4792;50.088;8.122;2022-07-06T00:21:12;15.90;99.90
9509;DHT22;4792;50.088;8.122;2022-07-06T00:23:40;15.70;99.90
9509;DHT22;4792;50.088;8.122;2022-07-06T00:26:09;15.70;99.90
9509;DHT22;4792;50.088;8.122;2022-07-06T00:28:38;15.70;99.90
9509;DHT22;4792;50.088;8.122;2022-07-06T00:31:06;15.60;99.90
9509;DHT22;4792;50.088;8.122;2022-07-06T00:33:34;15.60;99.90
9509;DHT22;4792;50.088;8.122;2022-07-06T00:36:02;15.50;99.90
9509;DHT22;4792;50.088;8.122;2022-07-06T00:38:31;15.60;99.90
9509;DHT22;4792;50.088;8.122;2022-07-06T00:40:59;15.60;99.90
9509;DHT22;4792;50.088;8.122;2022-07-06T00:43:28;15.50;99.90
9509;DHT22;4792;50.088;8.122;2022-07-06T00:45:56;15.30;99.90
9509;DHT22;4792;50.088;8.122;2022-07-06T00:48:25;15.40;99.90
9509;DHT22;4792;50.088;8.122;2022-07-06T00:50:53;15.50;99.90
9509;DHT22;4792;50.088;8.122;2022-07-06T00:53:21;15.30;99.90
9509;DHT22;4792;50.088;8.122;2022-07-06T00:55:49;15.30;99.90
9509;DHT22;4792;50.088;8.122;2022-07-06T00:58:17;15.10;99.90
9509;DHT22;4792;50.088;8.122;2022-07-06T01:00:47;15.10;99.90
9509;DHT22;4792;50.088;8.122;2022-07-06T01:03:16;15.10;99.90
9509;DHT22;4792;50.088;8.122;2022-07-06T01:05:45;15.10;99.90
9509;DHT22;4792;50.088;8.122;2022-07-06T01:08:13;15.10;99.90
9509;DHT22;4792;50.088;8.122;2022-07-06T01:10:42;15.00;99.90
9509;DHT22;4792;50.088;8.122;2022-07-06T01:13:11;14.90;99.90
9509;DHT22;4792;50.088;8.122;2022-07-06T01:15:39;14.90;99.90
9509;DHT22;4792;50.088;8.122;2022-07-06T01:18:11;15.00;99.90
9509;DHT22;4792;50.088;8.122;2022-07-06T01:20:41;15.00;99.90
9509;DHT22;4792;50.088;8.122;2022-07-06T01:23:09;15.00;99.90
9509;DHT22;4792;50.088;8.122;2022-07-06T01:25:37;15.10;99.90
9509;DHT22;4792;50.088;8.122;2022-07-06T01:28:05;15.20;99.90
9509;DHT22;4792;50.088;8.122;2022-07-06T01:30:33;15.10;99.90
9509;DHT22;4792;50.088;8.122;2022-07-06T01:33:02;15.00;99.90
9509;DHT22;4792;50.088;8.122;2022-07-06T01:35:32;15.00;99.90
9509;DHT22;4792;50.088;8.122;2022-07-06T01:38:02;15.00;99.90
9509;DHT22;4792;50.088;8.122;2022-07-06T01:40:30;14.80;99.90
9509;DHT22;4792;50.088;8.122;2022-07-06T01:42:59;14.70;99.90
9509;DHT22;4792;50.088;8.122;2022-07-06T01:45:27;14.50;99.90
9509;DHT22;4792;50.088;8.122;2022-07-06T01:47:59;14.40;99.90
9509;DHT22;4792;50.088;8.122;2022-07-06T01:50:27;14.40;99.90
9509;DHT22;4792;50.088;8.122;2022-07-06T01:52:55;14.30;99.90
9509;DHT22;4792;50.088;8.122;2022-07-06T01:55:25;14.20;99.90
9509;DHT22;4792;50.088;8.122;2022-07-06T01:57:53;14.10;99.90
9509;DHT22;4792;50.088;8.122;2022-07-06T02:00:21;14.00;99.90
9509;DHT22;4792;50.088;8.122;2022-07-06T02:02:49;13.90;99.90
9509;DHT22;4792;50.088;8.122;2022-07-06T02:05:18;13.90;99.90
9509;DHT22;4792;50.088;8.122;2022-07-06T02:07:46;13.80;99.90
9509;DHT22;4792;50.088;8.122;2022-07-06T02:10:14;13.80;99.90
9509;DHT22;4792;50.088;8.122;2022-07-06T02:12:43;13.80;99.90
9509;DHT22;4792;50.088;8.122;2022-07-06T02:15:12;13.80;99.90
9509;DHT22;4792;50.088;8.122;2022-07-06T02:17:40;13.80;99.90
9509;DHT22;4792;50.088;8.122;2022-07-06T02:20:09;13.80;99.90
9509;DHT22;4792;50.088;8.122;2022-07-06T02:22:37;13.70;99.90
9509;DHT22;4792;50.088;8.122;2022-07-06T02:25:06;13.70;99.90
9509;DHT22;4792;50.088;8.122;2022-07-06T02:27:34;13.70;99.90
9509;DHT22;4792;50.088;8.122;2022-07-06T02:30:05;13.70;99.90
9509;DHT22;4792;50.088;8.122;2022-07-06T02:32:34;13.70;99.90
9509;DHT22;4792;50.088;8.122;2022-07-06T02:35:02;13.70;99.90
9509;DHT22;4792;50.088;8.122;2022-07-06T02:37:30;13.70;99.90
9509;DHT22;4792;50.088;8.122;2022-07-06T02:39:59;13.60;99.90
9509;DHT22;4792;50.088;8.122;2022-07-06T02:42:27;13.60;99.90
9509;DHT22;4792;50.088;8.122;2022-07-06T02:44:55;13.60;99.90
9509;DHT22;4792;50.088;8.122;2022-07-06T02:47:24;13.60;99.90
9509;DHT22;4792;50.088;8.122;2022-07-06T02:49:53;13.50;99.90
9509;DHT22;4792;50.088;8.122;2022-07-06T02:52:21;13.60;99.90
9509;DHT22;4792;50.088;8.122;2022-07-06T02:54:49;13.70;99.90
9509;DHT22;4792;50.088;8.122;2022-07-06T02:57:18;13.60;99.90
9509;DHT22;4792;50.088;8.122;2022-07-06T02:59:46;13.50;99.90
9509;DHT22;4792;50.088;8.122;2022-07-06T03:02:16;13.40;99.90
9509;DHT22;4792;50.088;8.122;2022-07-06T03:04:45;13.30;99.90
9509;DHT22;4792;50.088;8.122;2022-07-06T03:07:14;13.20;99.90
9509;DHT22;4792;50.088;8.122;2022-07-06T03:09:42;13.20;99.90
9509;DHT22;4792;50.088;8.122;2022-07-06T03:12:10;13.30;99.90
9509;DHT22;4792;50.088;8.122;2022-07-06T03:14:38;13.20;99.90
9509;DHT22;4792;50.088;8.122;2022-07-06T03:17:06;13.20;99.90
9509;DHT22;4792;50.088;8.122;2022-07-06T03:19:34;13.20;99.90
9509;DHT22;4792;50.088;8.122;2022-07-06T03:22:05;13.30;99.90
9509;DHT22;4792;50.088;8.122;2022-07-06T03:24:33;13.30;99.90
9509;DHT22;4792;50.088;8.122;2022-07-06T03:27:01;13.30;99.90
9509;DHT22;4792;50.088;8.122;2022-07-06T03:29:30;13.30;99.90
9509;DHT22;4792;50.088;8.122;2022-07-06T03:31:58;13.40;99.90
9509;DHT22;4792;50.088;8.122;2022-07-06T03:34:26;13.50;99.90
9509;DHT22;4792;50.088;8.122;2022-07-06T03:36:54;13.50;99.90
9509;DHT22;4792;50.088;8.122;2022-07-06T03:39:24;13.50;99.90
9509;DHT22;4792;50.088;8.122;2022-07-06T03:41:52;13.60;99.90
9509;DHT22;4792;50.088;8.122;2022-07-06T03:44:20;13.60;99.90
9509;DHT22;4792;50.088;8.122;2022-07-06T03:46:48;13.50;99.90
9509;DHT22;4792;50.088;8.122;2022-07-06T03:49:17;13.40;99.90
9509;DHT22;4792;50.088;8.122;2022-07-06T03:51:46;13.40;99.90
9509;DHT22;4792;50.088;8.122;2022-07-06T03:54:14;13.40;99.90
9509;DHT22;4792;50.088;8.122;2022-07-06T03:56:43;13.40;99.90
9509;DHT22;4792;50.088;8.122;2022-07-06T03:59:11;13.40;99.90
9509;DHT22;4792;50.088;8.122;2022-07-06T04:01:41;13.40;99.90
9509;DHT22;4792;50.088;8.122;2022-07-06T04:04:09;13.30;99.90
9509;DHT22;4792;50.088;8.122;2022-07-06T04:06:37;13.30;99.90
9509;DHT22;4792;50.088;8.122;2022-07-06T04:09:06;13.20;99.90
9509;DHT22;4792;50.088;8.122;2022-07-06T04:11:34;13.10;99.90
9509;DHT22;4792;50.088;8.122;2022-07-06T04:14:04;13.10;99.90
9509;DHT22;4792;50.088;8.122;2022-07-06T04:16:32;13.10;99.90
9509;DHT22;4792;50.088;8.122;2022-07-06T04:19:00;13.10;99.90
9509;DHT22;4792;50.088;8.122;2022-07-06T04:21:28;13.00;99.90
9509;DHT22;4792;50.088;8.122;2022-07-06T04:23:56;13.10;99.90
9509;DHT22;4792;50.088;8.122;2022-07-06T04:26:25;13.00;99.90
9509;DHT22;4792;50.088;8.122;2022-07-06T04:28:53;13.00;99.90
9509;DHT22;4792;50.088;8.122;2022-07-06T04:31:22;13.10;99.90
9509;DHT22;4792;50.088;8.122;2022-07-06T04:33:51;13.00;99.90
9509;DHT22;4792;50.088;8.122;2022-07-06T04:36:19;12.90;99.90
9509;DHT22;4792;50.088;8.122;2022-07-06T04:38:47;13.00;99.90
9509;DHT22;4792;50.088;8.122;2022-07-06T04:41:15;13.00;99.90
9509;DHT22;4792;50.088;8.122;2022-07-06T04:43:43;13.00;99.90
9509;DHT22;4792;50.088;8.122;2022-07-06T04:46:12;13.00;99.90
9509;DHT22;4792;50.088;8.122;2022-07-06T04:48:41;13.00;99.90
9509;DHT22;4792;50.088;8.122;2022-07-06T04:51:09;13.00;99.90
9509;DHT22;4792;50.088;8.122;2022-07-06T04:53:38;13.00;99.90
9509;DHT22;4792;50.088;8.122;2022-07-06T04:56:06;13.10;99.90
9509;DHT22;4792;50.088;8.122;2022-07-06T04:58:34;13.10;99.90
9509;DHT22;4792;50.088;8.122;2022-07-06T05:01:02;13.10;99.90
9509;DHT22;4792;50.088;8.122;2022-07-06T05:03:31;13.10;99.90
9509;DHT22;4792;50.088;8.122;2022-07-06T05:06:01;13.10;99.90
9509;DHT22;4792;50.088;8.122;2022-07-06T05:08:30;13.20;99.90
9509;DHT22;4792;50.088;8.122;2022-07-06T05:10:58;13.20;99.90
9509;DHT22;4792;50.088;8.122;2022-07-06T05:13:26;13.30;99.90
9509;DHT22;4792;50.088;8.122;2022-07-06T05:15:54;13.30;99.90
9509;DHT22;4792;50.088;8.122;2022-07-06T05:18:22;13.30;99.90
9509;DHT22;4792;50.088;8.122;2022-07-06T05:20:51;13.40;99.90
9509;DHT22;4792;50.088;8.122;2022-07-06T05:23:21;13.50;99.90
9509;DHT22;4792;50.088;8.122;2022-07-06T05:25:49;13.50;99.90
9509;DHT22;4792;50.088;8.122;2022-07-06T05:28:17;13.60;99.90
9509;DHT22;4792;50.088;8.122;2022-07-06T05:30:45;13.70;99.90
9509;DHT22;4792;50.088;8.122;2022-07-06T05:33:13;13.80;99.90
9509;DHT22;4792;50.088;8.122;2022-07-06T05:35:42;13.80;99.90
9509;DHT22;4792;50.088;8.122;2022-07-06T05:38:18;13.70;99.90
9509;DHT22;4792;50.088;8.122;2022-07-06T05:40:48;13.80;99.90
9509;DHT22;4792;50.088;8.122;2022-07-06T05:43:17;13.90;99.90
9509;DHT22;4792;50.088;8.122;2022-07-06T05:45:45;13.90;99.90
9509;DHT22;4792;50.088;8.122;2022-07-06T05:48:13;14.00;99.90
9509;DHT22;4792;50.088;8.122;2022-07-06T05:50:59;14.00;99.90
9509;DHT22;4792;50.088;8.122;2022-07-06T05:53:27;14.10;99.90
9509;DHT22;4792;50.088;8.122;2022-07-06T05:55:57;14.20;99.90
9509;DHT22;4792;50.088;8.122;2022-07-06T05:58:25;14.20;99.90
9509;DHT22;4792;50.088;8.122;2022-07-06T06:00:54;14.20;99.90
9509;DHT22;4792;50.088;8.122;2022-07-06T06:03:22;14.20;99.90
9509;DHT22;4792;50.088;8.122;2022-07-06T06:05:51;14.30;99.90
9509;DHT22;4792;50.088;8.122;2022-07-06T06:08:19;14.30;99.90
9509;DHT22;4792;50.088;8.122;2022-07-06T06:10:47;14.30;99.90
9509;DHT22;4792;50.088;8.122;2022-07-06T06:13:17;14.40;99.90
9509;DHT22;4792;50.088;8.122;2022-07-06T06:15:45;14.30;99.90
9509;DHT22;4792;50.088;8.122;2022-07-06T06:18:13;14.50;99.90
9509;DHT22;4792;50.088;8.122;2022-07-06T06:20:44;14.60;99.90
9509;DHT22;4792;50.088;8.122;2022-07-06T06:23:12;14.60;99.90
9509;DHT22;4792;50.088;8.122;2022-07-06T06:25:41;14.60;99.90
9509;DHT22;4792;50.088;8.122;2022-07-06T06:28:10;14.60;99.90
9509;DHT22;4792;50.088;8.122;2022-07-06T06:30:40;14.60;99.90
9509;DHT22;4792;50.088;8.122;2022-07-06T06:33:10;14.70;99.90
9509;DHT22;4792;50.088;8.122;2022-07-06T06:35:38;14.60;99.90
9509;DHT22;4792;50.088;8.122;2022-07-06T06:38:09;14.80;99.90
9509;DHT22;4792;50.088;8.122;2022-07-06T06:40:37;14.80;99.90
9509;DHT22;4792;50.088;8.122;2022-07-06T06:43:06;14.90;99.90
9509;DHT22;4792;50.088;8.122;2022-07-06T06:45:34;15.00;99.90
9509;DHT22;4792;50.088;8.122;2022-07-06T06:48:04;15.00;99.90
9509;DHT22;4792;50.088;8.122;2022-07-06T06:50:38;14.90;99.90
9509;DHT22;4792;50.088;8.122;2022-07-06T06:53:06;15.10;99.90
9509;DHT22;4792;50.088;8.122;2022-07-06T06:55:35;15.10;99.90
9509;DHT22;4792;50.088;8.122;2022-07-06T06:58:03;15.20;99.90
9509;DHT22;4792;50.088;8.122;2022-07-06T07:00:31;15.30;99.90
9509;DHT22;4792;50.088;8.122;2022-07-06T07:02:59;15.20;99.90
9509;DHT22;4792;50.088;8.122;2022-07-06T07:05:29;15.40;99.90
9509;DHT22;4792;50.088;8.122;2022-07-06T07:07:57;15.50;99.90
9509;DHT22;4792;50.088;8.122;2022-07-06T07:10:30;15.70;99.90
9509;DHT22;4792;50.088;8.122;2022-07-06T07:12:58;15.60;99.90
9509;DHT22;4792;50.088;8.122;2022-07-06T07:15:27;15.80;99.90
9509;DHT22;4792;50.088;8.122;2022-07-06T07:17:55;15.90;99.90
9509;DHT22;4792;50.088;8.122;2022-07-06T07:20:23;15.80;99.90
9509;DHT22;4792;50.088;8.122;2022-07-06T07:22:53;15.70;99.90
9509;DHT22;4792;50.088;8.122;2022-07-06T07:25:21;15.50;99.90
9509;DHT22;4792;50.088;8.122;2022-07-06T07:27:49;15.80;99.90
9509;DHT22;4792;50.088;8.122;2022-07-06T07:30:17;15.70;99.90
9509;DHT22;4792;50.088;8.122;2022-07-06T07:32:45;15.70;99.90
9509;DHT22;4792;50.088;8.122;2022-07-06T07:35:14;16.00;99.90
9509;DHT22;4792;50.088;8.122;2022-07-06T07:37:42;16.20;99.90
9509;DHT22;4792;50.088;8.122;2022-07-06T07:40:12;15.90;99.90
9509;DHT22;4792;50.088;8.122;2022-07-06T07:42:40;15.80;99.90
9509;DHT22;4792;50.088;8.122;2022-07-06T07:45:09;15.90;99.90
9509;DHT22;4792;50.088;8.122;2022-07-06T07:47:39;15.90;99.90
9509;DHT22;4792;50.088;8.122;2022-07-06T07:50:08;15.90;99.90
9509;DHT22;4792;50.088;8.122;2022-07-06T07:52:36;15.90;99.90
9509;DHT22;4792;50.088;8.122;2022-07-06T07:55:05;15.90;99.90
9509;DHT22;4792;50.088;8.122;2022-07-06T07:57:55;16.20;99.90
9509;DHT22;4792;50.088;8.122;2022-07-06T08:00:23;16.30;99.90
9509;DHT22;4792;50.088;8.122;2022-07-06T08:02:54;16.20;99.90
9509;DHT22;4792;50.088;8.122;2022-07-06T08:05:22;16.60;99.90
9509;DHT22;4792;50.088;8.122;2022-07-06T08:07:50;16.60;99.90
9509;DHT22;4792;50.088;8.122;2022-07-06T08:10:19;16.50;99.90
9509;DHT22;4792;50.088;8.122;2022-07-06T08:12:47;16.80;99.90
9509;DHT22;4792;50.088;8.122;2022-07-06T08:15:17;16.80;99.90
9509;DHT22;4792;50.088;8.122;2022-07-06T08:17:45;17.00;99.90
9509;DHT22;4792;50.088;8.122;2022-07-06T08:20:14;17.20;99.90
9509;DHT22;4792;50.088;8.122;2022-07-06T08:22:43;17.20;99.90
9509;DHT22;4792;50.088;8.122;2022-07-06T08:25:11;17.30;99.90
9509;DHT22;4792;50.088;8.122;2022-07-06T08:27:39;17.60;99.90
9509;DHT22;4792;50.088;8.122;2022-07-06T08:30:09;17.70;99.90
9509;DHT22;4792;50.088;8.122;2022-07-06T08:32:40;17.80;99.90
9509;DHT22;4792;50.088;8.122;2022-07-06T08:35:28;17.80;99.90
9509;DHT22;4792;50.088;8.122;2022-07-06T08:37:57;17.90;99.90
9509;DHT22;4792;50.088;8.122;2022-07-06T08:40:26;18.10;99.90
9509;DHT22;4792;50.088;8.122;2022-07-06T08:42:59;18.20;99.90
9509;DHT22;4792;50.088;8.122;2022-07-06T08:45:28;18.10;99.90
9509;DHT22;4792;50.088;8.122;2022-07-06T08:48:03;18.30;99.90
9509;DHT22;4792;50.088;8.122;2022-07-06T08:50:32;18.20;99.90
9509;DHT22;4792;50.088;8.122;2022-07-06T08:53:01;18.50;99.90
9509;DHT22;4792;50.088;8.122;2022-07-06T08:55:30;18.50;99.90
9509;DHT22;4792;50.088;8.122;2022-07-06T08:57:58;18.40;99.90
9509;DHT22;4792;50.088;8.122;2022-07-06T09:00:26;18.20;99.90
9509;DHT22;4792;50.088;8.122;2022-07-06T09:02:54;18.00;99.90
9509;DHT22;4792;50.088;8.122;2022-07-06T09:05:25;18.30;99.90
9509;DHT22;4792;50.088;8.122;2022-07-06T09:07:53;18.70;99.90
9509;DHT22;4792;50.088;8.122;2022-07-06T09:10:26;18.80;99.90
9509;DHT22;4792;50.088;8.122;2022-07-06T09:13:02;18.90;99.90
9509;DHT22;4792;50.088;8.122;2022-07-06T09:15:32;19.10;99.90
9509;DHT22;4792;50.088;8.122;2022-07-06T09:18:01;19.10;99.90
9509;DHT22;4792;50.088;8.122;2022-07-06T09:20:31;18.60;99.90
9509;DHT22;4792;50.088;8.122;2022-07-06T09:23:00;19.20;99.90
9509;DHT22;4792;50.088;8.122;2022-07-06T09:25:29;19.40;99.90
9509;DHT22;4792;50.088;8.122;2022-07-06T09:27:58;18.70;99.90
9509;DHT22;4792;50.088;8.122;2022-07-06T09:30:28;18.50;99.90
9509;DHT22;4792;50.088;8.122;2022-07-06T09:32:58;18.30;99.90
9509;DHT22;4792;50.088;8.122;2022-07-06T09:35:29;18.10;99.90
9509;DHT22;4792;50.088;8.122;2022-07-06T09:38:03;18.50;99.90
9509;DHT22;4792;50.088;8.122;2022-07-06T09:40:34;18.80;99.90
9509;DHT22;4792;50.088;8.122;2022-07-06T09:43:10;19.30;99.90
9509;DHT22;4792;50.088;8.122;2022-07-06T09:45:40;19.70;99.90
9509;DHT22;4792;50.088;8.122;2022-07-06T09:48:10;20.00;99.90
9509;DHT22;4792;50.088;8.122;2022-07-06T09:50:39;20.10;99.90
9509;DHT22;4792;50.088;8.122;2022-07-06T09:53:10;20.00;99.90
9509;DHT22;4792;50.088;8.122;2022-07-06T09:55:38;20.00;99.90
9509;DHT22;4792;50.088;8.122;2022-07-06T09:58:06;19.60;99.90
9509;DHT22;4792;50.088;8.122;2022-07-06T10:00:34;20.00;99.90
9509;DHT22;4792;50.088;8.122;2022-07-06T10:03:04;19.90;99.90
9509;DHT22;4792;50.088;8.122;2022-07-06T10:05:32;20.30;99.90
9509;DHT22;4792;50.088;8.122;2022-07-06T10:08:00;20.40;99.90
9509;DHT22;4792;50.088;8.122;2022-07-06T10:10:34;21.00;99.90
9509;DHT22;4792;50.088;8.122;2022-07-06T10:13:04;19.90;99.90
9509;DHT22;4792;50.088;8.122;2022-07-06T10:15:34;19.60;99.90
9509;DHT22;4792;50.088;8.122;2022-07-06T10:18:05;19.80;99.90
9509;DHT22;4792;50.088;8.122;2022-07-06T10:20:34;20.30;99.90
9509;DHT22;4792;50.088;8.122;2022-07-06T10:23:04;20.90;99.90
9509;DHT22;4792;50.088;8.122;2022-07-06T10:25:34;21.20;99.90
9509;DHT22;4792;50.088;8.122;2022-07-06T10:28:03;21.60;99.90
9509;DHT22;4792;50.088;8.122;2022-07-06T10:30:41;21.90;99.90
9509;DHT22;4792;50.088;8.122;2022-07-06T10:33:10;21.50;99.90
9509;DHT22;4792;50.088;8.122;2022-07-06T10:35:41;20.90;99.90
9509;DHT22;4792;50.088;8.122;2022-07-06T10:38:11;21.30;99.90
9509;DHT22;4792;50.088;8.122;2022-07-06T10:40:41;21.70;99.90
9509;DHT22;4792;50.088;8.122;2022-07-06T10:43:34;21.60;99.90
9509;DHT22;4792;50.088;8.122;2022-07-06T10:46:06;21.20;99.90
9509;DHT22;4792;50.088;8.122;2022-07-06T10:48:35;20.80;99.90
9509;DHT22;4792;50.088;8.122;2022-07-06T10:51:04;21.20;99.90
9509;DHT22;4792;50.088;8.122;2022-07-06T10:53:34;21.40;99.90
9509;DHT22;4792;50.088;8.122;2022-07-06T10:56:05;22.10;99.90
9509;DHT22;4792;50.088;8.122;2022-07-06T10:58:50;21.70;99.90
9509;DHT22;4792;50.088;8.122;2022-07-06T11:01:20;22.10;99.90
9509;DHT22;4792;50.088;8.122;2022-07-06T11:03:52;22.90;99.90
9509;DHT22;4792;50.088;8.122;2022-07-06T11:06:33;23.40;99.90
9509;DHT22;4792;50.088;8.122;2022-07-06T11:09:03;23.00;99.90
9509;DHT22;4792;50.088;8.122;2022-07-06T11:11:41;23.00;99.90
9509;DHT22;4792;50.088;8.122;2022-07-06T11:14:12;22.80;99.90
9509;DHT22;4792;50.088;8.122;2022-07-06T11:17:00;22.90;99.90
9509;DHT22;4792;50.088;8.122;2022-07-06T11:19:30;22.70;99.90
9509;DHT22;4792;50.088;8.122;2022-07-06T11:22:05;22.60;99.90
9509;DHT22;4792;50.088;8.122;2022-07-06T11:24:36;22.30;99.90
9509;DHT22;4792;50.088;8.122;2022-07-06T11:27:07;22.50;99.90
9509;DHT22;4792;50.088;8.122;2022-07-06T11:29:36;22.40;99.90
9509;DHT22;4792;50.088;8.122;2022-07-06T11:32:07;21.90;99.90
9509;DHT22;4792;50.088;8.122;2022-07-06T11:34:39;22.80;99.90
9509;DHT22;4792;50.088;8.122;2022-07-06T11:37:09;23.50;99.90
9509;DHT22;4792;50.088;8.122;2022-07-06T11:39:39;23.90;99.90
9509;DHT22;4792;50.088;8.122;2022-07-06T11:42:09;22.90;99.90
9509;DHT22;4792;50.088;8.122;2022-07-06T11:44:38;22.70;99.90
9509;DHT22;4792;50.088;8.122;2022-07-06T11:47:08;23.20;99.90
9509;DHT22;4792;50.088;8.122;2022-07-06T11:49:39;23.10;99.90
9509;DHT22;4792;50.088;8.122;2022-07-06T11:52:09;22.60;99.90
9509;DHT22;4792;50.088;8.122;2022-07-06T11:54:38;22.10;99.90
9509;DHT22;4792;50.088;8.122;2022-07-06T11:57:10;22.30;99.90
9509;DHT22;4792;50.088;8.122;2022-07-06T11:59:40;22.60;99.90
9509;DHT22;4792;50.088;8.122;2022-07-06T12:02:10;22.70;99.90
9509;DHT22;4792;50.088;8.122;2022-07-06T12:04:40;23.10;99.90
9509;DHT22;4792;50.088;8.122;2022-07-06T12:07:10;23.60;99.90
9509;DHT22;4792;50.088;8.122;2022-07-06T12:09:40;24.30;99.90
9509;DHT22;4792;50.088;8.122;2022-07-06T12:12:11;24.80;99.90
9509;DHT22;4792;50.088;8.122;2022-07-06T12:14:40;24.00;99.90
9509;DHT22;4792;50.088;8.122;2022-07-06T12:17:10;24.30;99.90
9509;DHT22;4792;50.088;8.122;2022-07-06T12:19:39;23.60;99.90
9509;DHT22;4792;50.088;8.122;2022-07-06T12:22:09;22.50;99.90
9509;DHT22;4792;50.088;8.122;2022-07-06T12:24:42;22.00;99.90
9509;DHT22;4792;50.088;8.122;2022-07-06T12:27:16;22.60;99.90
9509;DHT22;4792;50.088;8.122;2022-07-06T12:29:45;23.20;99.90
9509;DHT22;4792;50.088;8.122;2022-07-06T12:32:15;23.30;99.90
9509;DHT22;4792;50.088;8.122;2022-07-06T12:34:44;23.20;99.90
9509;DHT22;4792;50.088;8.122;2022-07-06T12:37:12;23.80;99.90
9509;DHT22;4792;50.088;8.122;2022-07-06T12:39:42;23.90;99.20
9509;DHT22;4792;50.088;8.122;2022-07-06T12:42:12;23.30;99.10
9509;DHT22;4792;50.088;8.122;2022-07-06T12:44:48;22.90;98.80
9509;DHT22;4792;50.088;8.122;2022-07-06T12:47:17;22.60;99.40
9509;DHT22;4792;50.088;8.122;2022-07-06T12:49:46;22.90;99.90
9509;DHT22;4792;50.088;8.122;2022-07-06T12:52:15;23.50;99.90
9509;DHT22;4792;50.088;8.122;2022-07-06T12:54:45;23.70;99.90
9509;DHT22;4792;50.088;8.122;2022-07-06T12:57:15;23.90;99.90
9509;DHT22;4792;50.088;8.122;2022-07-06T12:59:47;24.20;99.90
9509;DHT22;4792;50.088;8.122;2022-07-06T13:02:21;24.30;99.10
9509;DHT22;4792;50.088;8.122;2022-07-06T13:05:12;23.90;97.40
9509;DHT22;4792;50.088;8.122;2022-07-06T13:07:45;23.60;98.00
9509;DHT22;4792;50.088;8.122;2022-07-06T13:10:14;22.50;99.90
9509;DHT22;4792;50.088;8.122;2022-07-06T13:12:43;22.10;99.90
9509;DHT22;4792;50.088;8.122;2022-07-06T13:15:13;21.60;99.90
9509;DHT22;4792;50.088;8.122;2022-07-06T13:17:41;21.90;99.90
9509;DHT22;4792;50.088;8.122;2022-07-06T13:20:12;22.10;99.90
9509;DHT22;4792;50.088;8.122;2022-07-06T13:22:40;22.00;99.90
9509;DHT22;4792;50.088;8.122;2022-07-06T13:25:09;22.20;99.90
9509;DHT22;4792;50.088;8.122;2022-07-06T13:27:37;22.40;99.90
9509;DHT22;4792;50.088;8.122;2022-07-06T13:30:05;22.00;99.90
9509;DHT22;4792;50.088;8.122;2022-07-06T13:32:35;21.50;99.90
9509;DHT22;4792;50.088;8.122;2022-07-06T13:35:04;21.50;99.90
9509;DHT22;4792;50.088;8.122;2022-07-06T13:37:32;21.90;99.90
9509;DHT22;4792;50.088;8.122;2022-07-06T13:40:01;21.40;99.90
9509;DHT22;4792;50.088;8.122;2022-07-06T13:42:29;20.80;99.90
9509;DHT22;4792;50.088;8.122;2022-07-06T13:44:58;21.60;99.90
9509;DHT22;4792;50.088;8.122;2022-07-06T13:47:26;22.00;99.90
9509;DHT22;4792;50.088;8.122;2022-07-06T13:49:55;22.40;99.90
9509;DHT22;4792;50.088;8.122;2022-07-06T13:52:24;22.70;99.60
9509;DHT22;4792;50.088;8.122;2022-07-06T13:54:52;23.10;99.70
9509;DHT22;4792;50.088;8.122;2022-07-06T13:57:27;23.50;98.80
9509;DHT22;4792;50.088;8.122;2022-07-06T13:59:55;23.40;98.00
9509;DHT22;4792;50.088;8.122;2022-07-06T14:02:23;23.40;97.80
9509;DHT22;4792;50.088;8.122;2022-07-06T14:04:52;23.60;97.30
9509;DHT22;4792;50.088;8.122;2022-07-06T14:07:21;23.60;97.90
9509;DHT22;4792;50.088;8.122;2022-07-06T14:09:50;22.10;99.80
9509;DHT22;4792;50.088;8.122;2022-07-06T14:12:19;21.80;99.90
9509;DHT22;4792;50.088;8.122;2022-07-06T14:14:50;21.30;99.90
9509;DHT22;4792;50.088;8.122;2022-07-06T14:17:18;21.20;99.90
9509;DHT22;4792;50.088;8.122;2022-07-06T14:19:47;21.30;99.90
9509;DHT22;4792;50.088;8.122;2022-07-06T14:22:16;20.90;99.90
9509;DHT22;4792;50.088;8.122;2022-07-06T14:24:45;21.30;99.90
9509;DHT22;4792;50.088;8.122;2022-07-06T14:27:13;21.60;99.90
9509;DHT22;4792;50.088;8.122;2022-07-06T14:29:41;21.50;99.90
9509;DHT22;4792;50.088;8.122;2022-07-06T14:32:09;21.20;99.90
9509;DHT22;4792;50.088;8.122;2022-07-06T14:34:38;21.00;99.90
9509;DHT22;4792;50.088;8.122;2022-07-06T14:37:07;21.10;99.90
9509;DHT22;4792;50.088;8.122;2022-07-06T14:39:35;20.90;99.90
9509;DHT22;4792;50.088;8.122;2022-07-06T14:42:05;20.90;99.90
9509;DHT22;4792;50.088;8.122;2022-07-06T14:44:34;21.00;99.90
9509;DHT22;4792;50.088;8.122;2022-07-06T14:47:02;20.70;99.90
9509;DHT22;4792;50.088;8.122;2022-07-06T14:49:31;20.80;99.90
9509;DHT22;4792;50.088;8.122;2022-07-06T14:51:59;20.70;99.90
9509;DHT22;4792;50.088;8.122;2022-07-06T14:54:27;20.60;99.90
9509;DHT22;4792;50.088;8.122;2022-07-06T14:56:56;20.20;99.90
9509;DHT22;4792;50.088;8.122;2022-07-06T14:59:26;19.90;99.90
9509;DHT22;4792;50.088;8.122;2022-07-06T15:01:54;20.00;99.90
9509;DHT22;4792;50.088;8.122;2022-07-06T15:04:23;19.90;99.90
9509;DHT22;4792;50.088;8.122;2022-07-06T15:06:51;19.60;99.90
9509;DHT22;4792;50.088;8.122;2022-07-06T15:09:22;19.40;99.90
9509;DHT22;4792;50.088;8.122;2022-07-06T15:11:50;19.60;99.90
9509;DHT22;4792;50.088;8.122;2022-07-06T15:14:18;19.60;99.90
9509;DHT22;4792;50.088;8.122;2022-07-06T15:16:48;19.70;99.90
9509;DHT22;4792;50.088;8.122;2022-07-06T15:19:16;19.50;99.90
9509;DHT22;4792;50.088;8.122;2022-07-06T15:21:44;19.30;99.90
9509;DHT22;4792;50.088;8.122;2022-07-06T15:24:12;19.50;99.90
9509;DHT22;4792;50.088;8.122;2022-07-06T15:26:41;19.60;99.90
9509;DHT22;4792;50.088;8.122;2022-07-06T15:29:09;19.70;99.90
9509;DHT22;4792;50.088;8.122;2022-07-06T15:31:37;19.90;99.90
9509;DHT22;4792;50.088;8.122;2022-07-06T15:34:07;19.80;99.90
9509;DHT22;4792;50.088;8.122;2022-07-06T15:36:35;20.10;99.90
9509;DHT22;4792;50.088;8.122;2022-07-06T15:39:04;20.20;99.90
9509;DHT22;4792;50.088;8.122;2022-07-06T15:41:32;20.00;99.90
9509;DHT22;4792;50.088;8.122;2022-07-06T15:44:00;20.20;99.90
9509;DHT22;4792;50.088;8.122;2022-07-06T15:46:28;20.60;99.90
9509;DHT22;4792;50.088;8.122;2022-07-06T15:48:56;20.50;99.90
9509;DHT22;4792;50.088;8.122;2022-07-06T15:51:26;20.40;99.90
9509;DHT22;4792;50.088;8.122;2022-07-06T15:53:55;20.50;99.90
9509;DHT22;4792;50.088;8.122;2022-07-06T15:56:23;20.50;99.90
9509;DHT22;4792;50.088;8.122;2022-07-06T15:58:51;20.60;99.90
9509;DHT22;4792;50.088;8.122;2022-07-06T16:01:19;20.40;99.90
9509;DHT22;4792;50.088;8.122;2022-07-06T16:03:48;20.60;99.90
9509;DHT22;4792;50.088;8.122;2022-07-06T16:06:16;21.00;99.90
9509;DHT22;4792;50.088;8.122;2022-07-06T16:08:46;20.80;99.90
9509;DHT22;4792;50.088;8.122;2022-07-06T16:11:15;21.00;99.90
9509;DHT22;4792;50.088;8.122;2022-07-06T16:13:44;20.30;99.90
9509;DHT22;4792;50.088;8.122;2022-07-06T16:16:21;20.40;99.90